createdAt,value
2023-01-13T00:00:18.721Z,0
2023-01-13T00:01:18.687Z,0
2023-01-13T00:02:18.707Z,0
2023-01-13T00:03:18.675Z,0
2023-01-13T00:04:18.692Z,3.3000000000000003
2023-01-13T00:05:18.679Z,5
2023-01-13T00:06:18.670Z,7.300000000000001
2023-01-13T00:07:18.691Z,5.4
2023-01-13T00:08:18.700Z,8
2023-01-13T00:09:18.671Z,5.6000000000000005
2023-01-13T00:10:18.698Z,2
2023-01-13T00:11:18.685Z,3.3000000000000003
2023-01-13T00:12:18.688Z,0
2023-01-13T00:13:18.684Z,0
2023-01-13T00:14:18.684Z,0
2023-01-13T00:15:18.688Z,0
2023-01-13T00:16:18.785Z,0
2023-01-13T00:17:18.690Z,0
2023-01-13T00:18:18.690Z,3.3000000000000003
2023-01-13T00:19:18.687Z,0
2023-01-13T00:20:18.697Z,0
2023-01-13T00:21:18.693Z,0
2023-01-13T00:22:18.695Z,0
2023-01-13T00:23:18.698Z,0
2023-01-13T00:24:18.726Z,0
2023-01-13T00:25:18.709Z,0
2023-01-13T00:26:18.710Z,0
2023-01-13T00:27:18.699Z,0
2023-01-13T00:28:18.718Z,0
2023-01-13T00:29:18.709Z,0
2023-01-13T00:30:18.706Z,0
2023-01-13T00:31:18.733Z,0
2023-01-13T00:32:18.700Z,0
2023-01-13T00:33:18.704Z,0
2023-01-13T00:34:18.710Z,0
2023-01-13T00:35:18.706Z,0
2023-01-13T00:36:18.710Z,0
2023-01-13T00:37:18.707Z,0
2023-01-13T00:38:18.715Z,0
2023-01-13T00:39:18.730Z,0
2023-01-13T00:40:18.751Z,0
2023-01-13T00:41:18.716Z,0
2023-01-13T00:42:18.725Z,0
2023-01-13T00:43:18.717Z,4.9
2023-01-13T00:44:18.725Z,4.3
2023-01-13T00:45:18.723Z,0
2023-01-13T00:46:18.758Z,0
2023-01-13T00:47:18.720Z,0
2023-01-13T00:48:18.718Z,0
2023-01-13T00:49:18.742Z,0
2023-01-13T00:50:18.725Z,0
2023-01-13T00:51:18.735Z,0
2023-01-13T00:52:18.729Z,0
2023-01-13T00:53:18.725Z,0
2023-01-13T00:54:18.742Z,0
2023-01-13T00:55:18.738Z,0
2023-01-13T00:56:22.068Z,0
2023-01-13T00:57:18.726Z,0
2023-01-13T00:58:18.745Z,0
2023-01-13T00:59:18.747Z,0
2023-01-13T01:00:18.755Z,0
2023-01-13T01:01:18.848Z,0
2023-01-13T01:02:18.797Z,0
2023-01-13T01:03:18.736Z,0
2023-01-13T01:04:18.741Z,0
2023-01-13T01:05:18.748Z,0
2023-01-13T01:06:18.748Z,0
2023-01-13T01:07:18.751Z,0
2023-01-13T01:08:18.753Z,0
2023-01-13T01:09:18.743Z,0
2023-01-13T01:10:18.745Z,0
2023-01-13T01:11:18.752Z,0
2023-01-13T01:12:18.783Z,0
2023-01-13T01:13:18.747Z,0
2023-01-13T01:14:18.755Z,0
2023-01-13T01:15:18.750Z,0
2023-01-13T01:16:18.805Z,0
2023-01-13T01:17:18.756Z,0
2023-01-13T01:18:18.769Z,0
2023-01-13T01:19:18.758Z,0
2023-01-13T01:20:18.774Z,0
2023-01-13T01:21:18.758Z,0
2023-01-13T01:22:18.769Z,0
2023-01-13T01:23:18.759Z,0
2023-01-13T01:24:18.775Z,0
2023-01-13T01:25:18.759Z,0
2023-01-13T01:26:18.790Z,0
2023-01-13T01:27:18.758Z,0
2023-01-13T01:28:18.786Z,0
2023-01-13T01:29:18.771Z,0
2023-01-13T01:30:18.787Z,0
2023-01-13T01:31:18.851Z,0
2023-01-13T01:32:18.783Z,0
2023-01-13T01:33:18.775Z,0
2023-01-13T01:34:18.777Z,0
2023-01-13T01:35:18.778Z,0
2023-01-13T01:36:18.771Z,0
2023-01-13T01:37:18.774Z,0
2023-01-13T01:38:18.796Z,0
2023-01-13T01:39:18.788Z,0
2023-01-13T01:40:18.782Z,0
2023-01-13T01:41:18.786Z,0
2023-01-13T01:42:18.780Z,0
2023-01-13T01:43:18.780Z,0
2023-01-13T01:44:18.802Z,0
2023-01-13T01:45:18.780Z,0
2023-01-13T01:46:18.831Z,0
2023-01-13T01:47:18.790Z,0
2023-01-13T01:48:18.778Z,0
2023-01-13T01:49:18.786Z,0
2023-01-13T01:50:18.781Z,0
2023-01-13T01:51:18.794Z,0
2023-01-13T01:52:18.799Z,0
2023-01-13T01:53:18.785Z,0
2023-01-13T01:54:18.792Z,0
2023-01-13T01:55:18.803Z,0
2023-01-13T01:56:18.797Z,0
2023-01-13T01:57:18.818Z,0
2023-01-13T01:58:18.797Z,0
2023-01-13T01:59:18.799Z,0
2023-01-13T02:00:18.841Z,0
2023-01-13T02:01:18.953Z,0
2023-01-13T02:02:18.884Z,0
2023-01-13T02:03:18.799Z,0
2023-01-13T02:04:18.797Z,0
2023-01-13T02:05:18.797Z,0
2023-01-13T02:06:18.804Z,0
2023-01-13T02:07:18.839Z,0
2023-01-13T02:08:18.817Z,0
2023-01-13T02:09:18.805Z,0
2023-01-13T02:10:18.807Z,0
2023-01-13T02:11:18.801Z,0
2023-01-13T02:12:18.806Z,0
2023-01-13T02:13:18.807Z,0
2023-01-13T02:14:18.795Z,0
2023-01-13T02:15:18.801Z,0
2023-01-13T02:16:18.906Z,0
2023-01-13T02:17:18.800Z,0
2023-01-13T02:18:18.830Z,0
2023-01-13T02:19:18.809Z,0
2023-01-13T02:20:18.819Z,0
2023-01-13T02:21:18.807Z,0
2023-01-13T02:22:18.804Z,0
2023-01-13T02:23:18.806Z,0
2023-01-13T02:24:18.807Z,0
2023-01-13T02:25:18.798Z,0
2023-01-13T02:26:18.808Z,0
2023-01-13T02:27:18.811Z,0
2023-01-13T02:28:18.830Z,0
2023-01-13T02:29:18.819Z,0
2023-01-13T02:30:18.847Z,0
2023-01-13T02:31:18.862Z,0
2023-01-13T02:32:18.832Z,0
2023-01-13T02:33:18.801Z,0
2023-01-13T02:34:18.808Z,0
2023-01-13T02:35:18.807Z,0
2023-01-13T02:36:18.802Z,0
2023-01-13T02:37:18.802Z,0
2023-01-13T02:38:18.834Z,0
2023-01-13T02:39:18.812Z,0
2023-01-13T02:40:18.822Z,0
2023-01-13T02:41:18.801Z,0
2023-01-13T02:42:18.803Z,0
2023-01-13T02:43:18.804Z,0
2023-01-13T02:44:18.826Z,0
2023-01-13T02:45:18.837Z,0
2023-01-13T02:46:18.810Z,0
2023-01-13T02:47:18.804Z,0
2023-01-13T02:48:18.835Z,0
2023-01-13T02:49:18.801Z,0
2023-01-13T02:50:18.833Z,0
2023-01-13T02:51:18.827Z,0
2023-01-13T02:52:18.822Z,0
2023-01-13T02:53:18.820Z,0
2023-01-13T02:54:18.828Z,0
2023-01-13T02:55:18.822Z,0
2023-01-13T02:56:18.831Z,0
2023-01-13T02:57:18.820Z,0
2023-01-13T02:58:18.828Z,0
2023-01-13T02:59:18.816Z,0
2023-01-13T03:00:18.819Z,0
2023-01-13T03:01:18.906Z,0
2023-01-13T03:02:19.009Z,0
2023-01-13T03:03:18.820Z,0
2023-01-13T03:04:18.852Z,0
2023-01-13T03:05:18.839Z,0
2023-01-13T03:06:18.837Z,0
2023-01-13T03:07:18.831Z,0
2023-01-13T03:08:18.858Z,0
2023-01-13T03:09:18.841Z,0
2023-01-13T03:10:18.846Z,0
2023-01-13T03:11:18.838Z,0
2023-01-13T03:12:18.855Z,0
2023-01-13T03:13:18.848Z,0
2023-01-13T03:14:18.833Z,0
2023-01-13T03:15:18.837Z,0
2023-01-13T03:16:18.861Z,0
2023-01-13T03:17:18.848Z,0
2023-01-13T03:18:18.864Z,0
2023-01-13T03:19:18.837Z,0
2023-01-13T03:20:18.887Z,0
2023-01-13T03:21:18.849Z,0
2023-01-13T03:22:18.839Z,0
2023-01-13T03:23:18.856Z,0
2023-01-13T03:24:18.848Z,0
2023-01-13T03:25:18.856Z,0
2023-01-13T03:26:18.849Z,0
2023-01-13T03:27:18.852Z,0
2023-01-13T03:28:18.850Z,0
2023-01-13T03:29:18.852Z,0
2023-01-13T03:30:18.851Z,0
2023-01-13T03:31:18.852Z,0
2023-01-13T03:32:18.866Z,0
2023-01-13T03:33:18.863Z,0
2023-01-13T03:34:18.877Z,0
2023-01-13T03:35:18.850Z,0
2023-01-13T03:36:18.894Z,0
2023-01-13T03:37:18.862Z,0
2023-01-13T03:38:18.859Z,0
2023-01-13T03:39:18.874Z,0
2023-01-13T03:40:18.874Z,0
2023-01-13T03:41:18.889Z,0
2023-01-13T03:42:18.893Z,0
2023-01-13T03:43:18.864Z,0
2023-01-13T03:44:18.877Z,0
2023-01-13T03:45:18.874Z,0
2023-01-13T03:46:18.904Z,0
2023-01-13T03:47:18.873Z,0
2023-01-13T03:48:18.890Z,0
2023-01-13T03:49:18.873Z,0
2023-01-13T03:50:18.867Z,0
2023-01-13T03:51:18.891Z,0
2023-01-13T03:52:18.903Z,0
2023-01-13T03:53:18.874Z,0
2023-01-13T03:54:18.870Z,0
2023-01-13T03:55:18.865Z,0
2023-01-13T03:56:18.871Z,0
2023-01-13T03:57:18.888Z,0
2023-01-13T03:58:18.951Z,0
2023-01-13T03:59:18.876Z,0
2023-01-13T04:00:18.896Z,0
2023-01-13T04:01:18.976Z,0
2023-01-13T04:02:18.959Z,0
2023-01-13T04:03:18.876Z,0
2023-01-13T04:04:18.895Z,0
2023-01-13T04:05:18.895Z,0
2023-01-13T04:06:18.900Z,0
2023-01-13T04:07:18.888Z,0
2023-01-13T04:08:19.056Z,0
2023-01-13T04:09:18.896Z,0
2023-01-13T04:10:18.905Z,0
2023-01-13T04:11:18.884Z,0
2023-01-13T04:12:18.896Z,0
2023-01-13T04:13:18.894Z,0
2023-01-13T04:14:18.916Z,0
2023-01-13T04:15:18.925Z,0
2023-01-13T04:16:18.926Z,0
2023-01-13T04:17:18.911Z,0
2023-01-13T04:18:18.913Z,0
2023-01-13T04:19:18.896Z,0
2023-01-13T04:20:18.915Z,0
2023-01-13T04:21:18.896Z,0
2023-01-13T04:22:18.895Z,0
2023-01-13T04:23:18.903Z,0
2023-01-13T04:24:18.925Z,0
2023-01-13T04:25:18.901Z,0
2023-01-13T04:26:18.952Z,0
2023-01-13T04:27:18.917Z,0
2023-01-13T04:28:18.895Z,0
2023-01-13T04:29:18.899Z,0
2023-01-13T04:30:18.906Z,0
2023-01-13T04:31:18.976Z,0
2023-01-13T04:32:18.928Z,0
2023-01-13T04:33:18.913Z,0
2023-01-13T04:34:18.911Z,0
2023-01-13T04:35:18.913Z,0
2023-01-13T04:36:18.910Z,0
2023-01-13T04:37:18.938Z,0
2023-01-13T04:38:18.923Z,0
2023-01-13T04:39:18.926Z,0
2023-01-13T04:40:18.958Z,0
2023-01-13T04:41:18.925Z,0
2023-01-13T04:42:18.941Z,0
2023-01-13T04:43:18.922Z,0
2023-01-13T04:44:18.929Z,0
2023-01-13T04:45:18.920Z,0
2023-01-13T04:46:19.007Z,0
2023-01-13T04:47:18.929Z,0
2023-01-13T04:48:18.934Z,0
2023-01-13T04:49:18.932Z,0
2023-01-13T04:50:18.938Z,0
2023-01-13T04:51:18.926Z,0
2023-01-13T04:52:18.948Z,0
2023-01-13T04:53:18.933Z,0
2023-01-13T04:54:18.945Z,0
2023-01-13T04:55:18.937Z,0
2023-01-13T04:56:18.961Z,0
2023-01-13T04:57:18.965Z,0
2023-01-13T04:58:18.956Z,0
2023-01-13T04:59:18.949Z,0
2023-01-13T05:00:18.943Z,0
2023-01-13T05:01:19.089Z,0
2023-01-13T05:02:18.992Z,0
2023-01-13T05:03:18.936Z,0
2023-01-13T05:04:18.950Z,0
2023-01-13T05:05:18.944Z,0
2023-01-13T05:06:18.944Z,6.7
2023-01-13T05:07:18.953Z,5.5
2023-01-13T05:08:18.942Z,9.1
2023-01-13T05:09:18.944Z,4.9
2023-01-13T05:10:18.951Z,8.8
2023-01-13T05:11:18.950Z,4.9
2023-01-13T05:12:18.973Z,4.9
2023-01-13T05:13:18.956Z,3.9000000000000004
2023-01-13T05:14:18.945Z,5.9
2023-01-13T05:15:18.955Z,6.1000000000000005
2023-01-13T05:16:18.997Z,6.7
2023-01-13T05:17:18.948Z,5.6000000000000005
2023-01-13T05:18:18.952Z,1.3
2023-01-13T05:19:18.949Z,0
2023-01-13T05:20:18.953Z,0
2023-01-13T05:21:19.002Z,0
2023-01-13T05:22:18.957Z,0
2023-01-13T05:23:18.961Z,0
2023-01-13T05:24:18.966Z,0
2023-01-13T05:25:18.994Z,0
2023-01-13T05:26:18.959Z,0
2023-01-13T05:27:18.967Z,0
2023-01-13T05:28:18.996Z,0
2023-01-13T05:29:18.972Z,0
2023-01-13T05:30:18.971Z,0
2023-01-13T05:31:18.999Z,0
2023-01-13T05:32:18.972Z,0
2023-01-13T05:33:18.975Z,0
2023-01-13T05:34:18.973Z,0
2023-01-13T05:35:18.979Z,0
2023-01-13T05:36:18.973Z,0
2023-01-13T05:37:18.973Z,0
2023-01-13T05:38:18.989Z,0
2023-01-13T05:39:18.979Z,0
2023-01-13T05:40:18.975Z,0
2023-01-13T05:41:19.023Z,0
2023-01-13T05:42:18.991Z,0
2023-01-13T05:43:18.976Z,0
2023-01-13T05:44:19.007Z,0
2023-01-13T05:45:18.988Z,0
2023-01-13T05:46:19.025Z,0
2023-01-13T05:47:18.978Z,0
2023-01-13T05:48:18.997Z,0
2023-01-13T05:49:18.978Z,0
2023-01-13T05:50:18.983Z,0
2023-01-13T05:51:18.984Z,0
2023-01-13T05:52:18.988Z,0
2023-01-13T05:53:18.999Z,0
2023-01-13T05:54:18.992Z,0
2023-01-13T05:55:18.998Z,0
2023-01-13T05:56:19.005Z,0
2023-01-13T05:57:19.010Z,5.800000000000001
2023-01-13T05:58:18.992Z,1.8
2023-01-13T05:59:18.987Z,1.2000000000000002
2023-01-13T06:00:19.011Z,0
2023-01-13T06:01:19.059Z,0
2023-01-13T06:02:18.994Z,0
2023-01-13T06:03:19.030Z,0
2023-01-13T06:04:19.053Z,0
2023-01-13T06:05:18.999Z,0
2023-01-13T06:06:19.003Z,0
2023-01-13T06:07:19.007Z,0
2023-01-13T06:08:19.108Z,0
2023-01-13T06:09:19.003Z,0
2023-01-13T06:10:19.007Z,0
2023-01-13T06:11:19.010Z,0
2023-01-13T06:12:18.994Z,0
2023-01-13T06:13:19.000Z,0
2023-01-13T06:14:19.009Z,0
2023-01-13T06:15:19.009Z,0
2023-01-13T06:16:19.143Z,0
2023-01-13T06:17:19.018Z,0
2023-01-13T06:18:19.011Z,0
2023-01-13T06:19:19.003Z,2.5
2023-01-13T06:20:19.011Z,0
2023-01-13T06:21:19.005Z,0
2023-01-13T06:22:19.004Z,0
2023-01-13T06:23:19.005Z,0
2023-01-13T06:24:19.016Z,0
2023-01-13T06:25:19.013Z,0
2023-01-13T06:26:19.009Z,0
2023-01-13T06:27:19.006Z,0
2023-01-13T06:28:19.012Z,4.2
2023-01-13T06:29:19.017Z,4.5
2023-01-13T06:30:19.022Z,5.300000000000001
2023-01-13T06:31:19.061Z,3.9000000000000004
2023-01-13T06:32:19.034Z,5.4
2023-01-13T06:33:19.012Z,6.9
2023-01-13T06:34:19.002Z,6.2
2023-01-13T06:35:19.033Z,4
2023-01-13T06:36:19.008Z,1.9000000000000001
2023-01-13T06:37:19.005Z,1
2023-01-13T06:38:19.007Z,0
2023-01-13T06:39:19.019Z,0
2023-01-13T06:40:19.039Z,2.9000000000000004
2023-01-13T06:41:19.022Z,4.5
2023-01-13T06:42:19.014Z,2.2
2023-01-13T06:43:19.015Z,4.6000000000000005
2023-01-13T06:44:19.046Z,3.2
2023-01-13T06:45:19.029Z,2.2
2023-01-13T06:46:19.064Z,3.6
2023-01-13T06:47:19.011Z,2.4000000000000004
2023-01-13T06:48:19.064Z,5.7
2023-01-13T06:49:21.447Z,4.9
2023-01-13T06:50:19.043Z,5.7
2023-01-13T06:51:19.019Z,2.3000000000000003
2023-01-13T06:52:19.032Z,1.5
2023-01-13T06:53:19.025Z,2.1
2023-01-13T06:54:19.025Z,0
2023-01-13T06:55:19.022Z,0
2023-01-13T06:56:19.037Z,3.2
2023-01-13T06:57:19.017Z,4.6000000000000005
2023-01-13T06:58:19.034Z,3.7
2023-01-13T06:59:19.019Z,4.4
2023-01-13T07:00:19.035Z,0
2023-01-13T07:01:19.147Z,0
2023-01-13T07:02:19.214Z,4.2
2023-01-13T07:03:19.027Z,2.1
2023-01-13T07:04:19.066Z,2.1
2023-01-13T07:05:19.041Z,1.6
2023-01-13T07:06:19.026Z,0
2023-01-13T07:07:19.019Z,0
2023-01-13T07:08:19.026Z,0
2023-01-13T07:09:19.039Z,0
2023-01-13T07:10:19.021Z,0
2023-01-13T07:11:19.061Z,0
2023-01-13T07:12:19.028Z,0
2023-01-13T07:13:19.028Z,0
2023-01-13T07:14:19.025Z,0
2023-01-13T07:15:19.023Z,0
2023-01-13T07:16:19.092Z,4.2
2023-01-13T07:17:19.039Z,3.4000000000000004
2023-01-13T07:18:19.038Z,0
2023-01-13T07:19:20.399Z,0
2023-01-13T07:20:19.057Z,0
2023-01-13T07:21:19.029Z,0
2023-01-13T07:22:19.047Z,0
2023-01-13T07:23:19.043Z,0
2023-01-13T07:24:19.057Z,0
2023-01-13T07:25:19.037Z,0
2023-01-13T07:26:19.042Z,0
2023-01-13T07:27:19.060Z,4
2023-01-13T07:28:19.031Z,1
2023-01-13T07:29:19.040Z,0
2023-01-13T07:30:19.035Z,0
2023-01-13T07:31:19.086Z,0
2023-01-13T07:32:19.039Z,0
2023-01-13T07:33:19.047Z,0
2023-01-13T07:34:19.033Z,0
2023-01-13T07:35:19.041Z,3.6
2023-01-13T07:36:19.059Z,4.1000000000000005
2023-01-13T07:37:19.027Z,1.2000000000000002
2023-01-13T07:38:19.042Z,0
2023-01-13T07:39:19.038Z,1.4000000000000001
2023-01-13T07:40:19.032Z,0
2023-01-13T07:41:19.049Z,0
2023-01-13T07:42:19.059Z,4.4
2023-01-13T07:43:19.043Z,2.2
2023-01-13T07:44:19.054Z,3.2
2023-01-13T07:45:19.037Z,0
2023-01-13T07:46:19.039Z,0
2023-01-13T07:47:19.039Z,0
2023-01-13T07:48:19.037Z,0
2023-01-13T07:49:19.041Z,0
2023-01-13T07:50:19.057Z,0
2023-01-13T07:51:19.045Z,0
2023-01-13T07:52:19.057Z,0
2023-01-13T07:53:19.063Z,0
2023-01-13T07:54:19.414Z,0
2023-01-13T07:55:19.049Z,0
2023-01-13T07:56:19.045Z,0
2023-01-13T07:57:19.062Z,0
2023-01-13T07:58:19.035Z,0
2023-01-13T07:59:19.053Z,0
2023-01-13T08:00:19.068Z,0
2023-01-13T08:01:19.135Z,0
2023-01-13T08:02:19.266Z,0
2023-01-13T08:03:19.050Z,0
2023-01-13T08:04:19.049Z,0
2023-01-13T08:05:19.062Z,0
2023-01-13T08:06:19.053Z,0
2023-01-13T08:07:19.046Z,0
2023-01-13T08:08:19.104Z,0
2023-01-13T08:09:19.077Z,0
2023-01-13T08:10:19.078Z,0
2023-01-13T08:11:19.048Z,0
2023-01-13T08:12:19.062Z,0
2023-01-13T08:13:19.065Z,0
2023-01-13T08:14:19.056Z,0
2023-01-13T08:15:19.056Z,0
2023-01-13T08:16:19.070Z,0
2023-01-13T08:17:20.509Z,0
2023-01-13T08:18:19.069Z,0
2023-01-13T08:19:19.062Z,0
2023-01-13T08:20:19.067Z,0
2023-01-13T08:21:19.080Z,0
2023-01-13T08:22:19.072Z,0
2023-01-13T08:23:19.056Z,0
2023-01-13T08:24:19.087Z,0
2023-01-13T08:25:19.061Z,0
2023-01-13T08:26:19.060Z,2.6
2023-01-13T08:27:19.075Z,1.7000000000000002
2023-01-13T08:28:19.061Z,0
2023-01-13T08:29:19.076Z,0
2023-01-13T08:30:19.084Z,0
2023-01-13T08:31:19.076Z,0
2023-01-13T08:32:19.070Z,1.9000000000000001
2023-01-13T08:33:19.076Z,2.7
2023-01-13T08:34:19.074Z,3.7
2023-01-13T08:35:19.063Z,3.2
2023-01-13T08:36:19.064Z,0
2023-01-13T08:37:19.070Z,0
2023-01-13T08:38:19.062Z,0
2023-01-13T08:39:19.072Z,0
2023-01-13T08:40:19.114Z,0
2023-01-13T08:41:19.072Z,0
2023-01-13T08:42:19.074Z,0
2023-01-13T08:43:19.076Z,4.5
2023-01-13T08:44:19.091Z,5.1000000000000005
2023-01-13T08:45:19.091Z,4.4
2023-01-13T08:46:19.160Z,6.800000000000001
2023-01-13T08:47:19.071Z,8.9
2023-01-13T08:48:19.082Z,9.9
2023-01-13T08:49:19.097Z,5.2
2023-01-13T08:50:19.075Z,9.600000000000001
2023-01-13T08:51:19.091Z,6.9
2023-01-13T08:52:19.094Z,7.300000000000001
2023-01-13T08:53:19.081Z,8.5
2023-01-13T08:54:19.080Z,7.4
2023-01-13T08:55:19.075Z,7.300000000000001
2023-01-13T08:56:19.104Z,6
2023-01-13T08:57:19.122Z,2.7
2023-01-13T08:58:19.077Z,4.2
2023-01-13T08:59:19.091Z,0
2023-01-13T09:00:19.103Z,0
2023-01-13T09:01:19.271Z,0
2023-01-13T09:02:19.220Z,0
2023-01-13T09:03:19.093Z,0
2023-01-13T09:04:19.122Z,0
2023-01-13T09:05:19.091Z,0
2023-01-13T09:06:19.080Z,0
2023-01-13T09:07:19.090Z,0
2023-01-13T09:08:19.077Z,5.5
2023-01-13T09:09:19.103Z,4.6000000000000005
2023-01-13T09:10:19.084Z,0
2023-01-13T09:11:19.085Z,0
2023-01-13T09:12:19.158Z,0
2023-01-13T09:13:19.086Z,0
2023-01-13T09:14:19.090Z,1.5
2023-01-13T09:15:19.093Z,1.3
2023-01-13T09:16:19.203Z,0
2023-01-13T09:17:19.093Z,0
2023-01-13T09:18:19.092Z,0
2023-01-13T09:19:19.089Z,2.1
2023-01-13T09:20:19.107Z,4.3
2023-01-13T09:21:19.086Z,5.2
2023-01-13T09:22:19.100Z,3
2023-01-13T09:23:19.103Z,1.6
2023-01-13T09:24:19.112Z,0.6000000000000001
2023-01-13T09:25:19.097Z,1.1
2023-01-13T09:26:19.139Z,0
2023-01-13T09:27:19.107Z,0
2023-01-13T09:28:19.125Z,1.1
2023-01-13T09:29:19.097Z,0
2023-01-13T09:30:19.108Z,0
2023-01-13T09:31:19.215Z,0
2023-01-13T09:32:19.113Z,0
2023-01-13T09:33:19.118Z,4.4
2023-01-13T09:34:19.104Z,3.1
2023-01-13T09:35:19.090Z,0
2023-01-13T09:36:19.107Z,0
2023-01-13T09:37:19.112Z,0
2023-01-13T09:38:19.099Z,0
2023-01-13T09:39:19.106Z,0
2023-01-13T09:40:19.101Z,0
2023-01-13T09:41:19.126Z,0
2023-01-13T09:42:19.094Z,0
2023-01-13T09:43:19.113Z,0
2023-01-13T09:44:19.131Z,0
2023-01-13T09:45:19.116Z,0
2023-01-13T09:46:19.129Z,0
2023-01-13T09:47:19.100Z,0
2023-01-13T09:48:19.150Z,0
2023-01-13T09:49:19.112Z,0
2023-01-13T09:50:19.103Z,0
2023-01-13T09:51:19.184Z,0
2023-01-13T09:52:19.109Z,0
2023-01-13T09:53:19.114Z,0
2023-01-13T09:54:19.109Z,0
2023-01-13T09:55:19.108Z,0
2023-01-13T09:56:19.108Z,0
2023-01-13T09:57:19.126Z,0
2023-01-13T09:58:19.127Z,0
2023-01-13T09:59:19.113Z,0
2023-01-13T10:00:19.146Z,0
2023-01-13T10:01:19.152Z,0
2023-01-13T10:02:19.122Z,0
2023-01-13T10:03:19.252Z,0
2023-01-13T10:04:19.167Z,0
2023-01-13T10:05:19.121Z,1.5
2023-01-13T10:06:19.125Z,0
2023-01-13T10:07:19.253Z,0
2023-01-13T10:08:19.137Z,0
2023-01-13T10:09:19.114Z,0
2023-01-13T10:10:19.140Z,0
2023-01-13T10:11:19.126Z,0
2023-01-13T10:12:19.136Z,0
2023-01-13T10:13:19.131Z,0
2023-01-13T10:14:19.123Z,0
2023-01-13T10:15:19.135Z,0
2023-01-13T10:16:19.286Z,0
2023-01-13T10:17:19.171Z,0
2023-01-13T10:18:19.280Z,0
2023-01-13T10:19:19.131Z,0
2023-01-13T10:20:19.144Z,0
2023-01-13T10:21:19.129Z,0
2023-01-13T10:22:19.134Z,0
2023-01-13T10:23:19.141Z,0
2023-01-13T10:24:19.137Z,0
2023-01-13T10:25:19.121Z,0
2023-01-13T10:26:19.227Z,0
2023-01-13T10:27:19.138Z,0
2023-01-13T10:28:19.378Z,0
2023-01-13T10:29:19.150Z,0
2023-01-13T10:30:19.219Z,0
2023-01-13T10:31:19.190Z,0
2023-01-13T10:32:19.150Z,0
2023-01-13T10:33:19.136Z,0
2023-01-13T10:34:19.135Z,0
2023-01-13T10:35:19.132Z,0
2023-01-13T10:36:19.139Z,0
2023-01-13T10:37:19.136Z,0
2023-01-13T10:38:19.199Z,0
2023-01-13T10:39:19.141Z,0
2023-01-13T10:40:19.204Z,0
2023-01-13T10:41:19.136Z,0
2023-01-13T10:42:19.138Z,0
2023-01-13T10:43:19.146Z,0
2023-01-13T10:44:19.173Z,0
2023-01-13T10:45:19.148Z,0
2023-01-13T10:46:19.262Z,0
2023-01-13T10:47:19.144Z,0
2023-01-13T10:48:19.171Z,0
2023-01-13T10:49:19.139Z,8.3
2023-01-13T10:50:19.156Z,5.300000000000001
2023-01-13T10:51:19.143Z,6
2023-01-13T10:52:19.300Z,6.6000000000000005
2023-01-13T10:53:19.148Z,6.5
2023-01-13T10:54:19.149Z,5.1000000000000005
2023-01-13T10:55:19.138Z,9.9
2023-01-13T10:56:19.150Z,6
2023-01-13T10:57:19.181Z,4.5
2023-01-13T10:58:19.138Z,2.2
2023-01-13T10:59:19.149Z,3.4000000000000004
2023-01-13T11:00:19.151Z,4.1000000000000005
2023-01-13T11:01:19.322Z,1.5
2023-01-13T11:02:25.586Z,0
2023-01-13T11:03:19.145Z,0
2023-01-13T11:04:19.193Z,0
2023-01-13T11:05:19.172Z,4.2
2023-01-13T11:06:19.149Z,4.5
2023-01-13T11:07:19.157Z,3.7
2023-01-13T11:08:19.162Z,4.2
2023-01-13T11:09:19.158Z,6.5
2023-01-13T11:10:19.153Z,6.2
2023-01-13T11:11:19.154Z,4.6000000000000005
2023-01-13T11:12:19.163Z,5.300000000000001
2023-01-13T11:13:19.159Z,5.2
2023-01-13T11:14:19.154Z,4.7
2023-01-13T11:15:19.186Z,3.8000000000000003
2023-01-13T11:16:19.286Z,2.9000000000000004
2023-01-13T11:17:19.155Z,4.7
2023-01-13T11:18:19.168Z,2.2
2023-01-13T11:19:19.165Z,0
2023-01-13T11:20:19.192Z,0
2023-01-13T11:21:19.153Z,0
2023-01-13T11:22:19.157Z,0
2023-01-13T11:23:19.154Z,0
2023-01-13T11:24:19.161Z,5.6000000000000005
2023-01-13T11:25:19.163Z,5.7
2023-01-13T11:26:19.159Z,8
2023-01-13T11:27:19.163Z,3.3000000000000003
2023-01-13T11:28:19.169Z,3.9000000000000004
2023-01-13T11:29:19.166Z,3.1
2023-01-13T11:30:19.158Z,2
2023-01-13T11:31:19.237Z,0
2023-01-13T11:32:19.170Z,0
2023-01-13T11:33:19.160Z,0
2023-01-13T11:34:19.181Z,0
2023-01-13T11:35:19.179Z,0
2023-01-13T11:36:20.564Z,0
2023-01-13T11:37:19.164Z,0
2023-01-13T11:38:19.159Z,0
2023-01-13T11:39:19.181Z,0
2023-01-13T11:40:19.161Z,0
2023-01-13T11:41:19.175Z,0
2023-01-13T11:42:19.167Z,0
2023-01-13T11:43:19.165Z,0
2023-01-13T11:44:19.176Z,0
2023-01-13T11:45:19.176Z,0
2023-01-13T11:46:19.237Z,0
2023-01-13T11:47:19.172Z,0
2023-01-13T11:48:19.165Z,0
2023-01-13T11:49:20.830Z,0
2023-01-13T11:50:19.168Z,0
2023-01-13T11:51:19.178Z,0
2023-01-13T11:52:19.195Z,0
2023-01-13T11:53:19.180Z,0
2023-01-13T11:54:19.194Z,0
2023-01-13T11:55:20.193Z,0
2023-01-13T11:56:19.161Z,0
2023-01-13T11:57:19.176Z,0
2023-01-13T11:58:19.200Z,0
2023-01-13T11:59:19.177Z,0
2023-01-13T12:00:19.177Z,0.7000000000000001
2023-01-13T12:01:20.920Z,0
2023-01-13T12:02:19.259Z,0
2023-01-13T12:03:19.235Z,0
2023-01-13T12:04:19.177Z,0
2023-01-13T12:05:19.183Z,0
2023-01-13T12:06:19.177Z,0
2023-01-13T12:07:20.751Z,0
2023-01-13T12:08:19.305Z,0
2023-01-13T12:09:19.185Z,0
2023-01-13T12:10:19.180Z,0
2023-01-13T12:11:19.190Z,0
2023-01-13T12:12:19.180Z,3.6
2023-01-13T12:13:19.202Z,4.5
2023-01-13T12:14:19.180Z,0
2023-01-13T12:15:19.176Z,0
2023-01-13T12:16:19.239Z,1.6
2023-01-13T12:17:19.184Z,6.300000000000001
2023-01-13T12:18:19.172Z,3.3000000000000003
2023-01-13T12:19:19.189Z,0
2023-01-13T12:20:19.192Z,3.6
2023-01-13T12:21:19.195Z,0.8
2023-01-13T12:22:19.185Z,1.6
2023-01-13T12:23:19.191Z,0
2023-01-13T12:24:19.235Z,0
2023-01-13T12:25:19.185Z,0
2023-01-13T12:26:19.192Z,0
2023-01-13T12:27:19.187Z,0
2023-01-13T12:28:19.238Z,0
2023-01-13T12:29:19.187Z,0
2023-01-13T12:30:19.204Z,0
2023-01-13T12:31:19.263Z,0
2023-01-13T12:32:19.187Z,0
2023-01-13T12:33:19.181Z,0
2023-01-13T12:34:19.199Z,0
2023-01-13T12:35:19.192Z,0
2023-01-13T12:36:19.187Z,1.4000000000000001
2023-01-13T12:37:19.213Z,3.9000000000000004
2023-01-13T12:38:19.216Z,2.6
2023-01-13T12:39:19.187Z,3.7
2023-01-13T12:40:19.236Z,5.5
2023-01-13T12:41:19.200Z,2.7
2023-01-13T12:42:19.195Z,4.1000000000000005
2023-01-13T12:43:19.183Z,3
2023-01-13T12:44:19.192Z,1.8
2023-01-13T12:45:19.190Z,3.2
2023-01-13T12:46:19.198Z,1
2023-01-13T12:47:19.193Z,0
2023-01-13T12:48:19.191Z,0
2023-01-13T12:49:19.194Z,0
2023-01-13T12:50:19.207Z,0
2023-01-13T12:51:19.191Z,0
2023-01-13T12:52:19.213Z,0
2023-01-13T12:53:19.196Z,2.8000000000000003
2023-01-13T12:54:19.206Z,3.5
2023-01-13T12:55:19.224Z,1.6
2023-01-13T12:56:19.209Z,0
2023-01-13T12:57:19.208Z,3.6
2023-01-13T12:58:19.217Z,2.5
2023-01-13T12:59:19.262Z,6.5
2023-01-13T13:00:19.188Z,5.800000000000001
2023-01-13T13:01:19.320Z,7.4
2023-01-13T13:02:19.371Z,5.4
2023-01-13T13:03:19.547Z,3.6
2023-01-13T13:04:19.202Z,0
2023-01-13T13:05:19.208Z,1.5
2023-01-13T13:06:19.195Z,5.6000000000000005
2023-01-13T13:07:19.190Z,2.4000000000000004
2023-01-13T13:08:19.203Z,3.2
2023-01-13T13:09:19.190Z,3.7
2023-01-13T13:10:19.223Z,2.4000000000000004
2023-01-13T13:11:19.197Z,2.4000000000000004
2023-01-13T13:12:19.228Z,2.7
2023-01-13T13:13:19.201Z,2.5
2023-01-13T13:14:19.205Z,1.6
2023-01-13T13:15:19.267Z,0
2023-01-13T13:16:19.285Z,0
2023-01-13T13:17:19.190Z,0
2023-01-13T13:18:19.205Z,0
2023-01-13T13:19:19.212Z,0
2023-01-13T13:20:19.203Z,0
2023-01-13T13:21:19.197Z,0
2023-01-13T13:22:19.237Z,0
2023-01-13T13:23:19.201Z,0.6000000000000001
2023-01-13T13:24:19.208Z,1.2000000000000002
2023-01-13T13:25:19.223Z,2.9000000000000004
2023-01-13T13:26:19.199Z,4.2
2023-01-13T13:27:19.204Z,5.5
2023-01-13T13:28:19.252Z,8.8
2023-01-13T13:29:19.224Z,6.7
2023-01-13T13:30:19.197Z,7.5
2023-01-13T13:31:19.256Z,5.2
2023-01-13T13:32:19.218Z,5.300000000000001
2023-01-13T13:33:19.211Z,5
2023-01-13T13:34:19.209Z,5.7
2023-01-13T13:35:19.193Z,4.3
2023-01-13T13:36:19.215Z,2.2
2023-01-13T13:37:19.198Z,0
2023-01-13T13:38:19.215Z,3.2
2023-01-13T13:39:19.219Z,1.1
2023-01-13T13:40:19.192Z,0
2023-01-13T13:41:19.197Z,3
2023-01-13T13:42:19.213Z,1.3
2023-01-13T13:43:19.197Z,1.9000000000000001
2023-01-13T13:44:19.257Z,0
2023-01-13T13:45:19.220Z,0
2023-01-13T13:46:19.384Z,0
2023-01-13T13:47:19.208Z,0
2023-01-13T13:48:19.212Z,0
2023-01-13T13:49:19.198Z,0
2023-01-13T13:50:19.208Z,0
2023-01-13T13:51:19.195Z,0
2023-01-13T13:52:19.334Z,0
2023-01-13T13:53:19.206Z,0
2023-01-13T13:54:19.216Z,0
2023-01-13T13:55:19.220Z,0
2023-01-13T13:56:19.205Z,0
2023-01-13T13:57:19.213Z,3.7
2023-01-13T13:58:19.208Z,1.5
2023-01-13T13:59:19.226Z,0
2023-01-13T14:00:19.225Z,0